Ava, New York
Current Conditions -  °F | °C
As of 2:53 AM on Friday 28 Nov 2014 (Local Time) from KRME Reporting Station
Overcast Overcast  
Wind Chill: 21°   Ceiling: 3600
Heat Index: 26°   Visibility: 10mi
Dew Point: 24°   Wind: 5mph
Humidity: 92%   Direction: 280°W
Pressure: 30.09"   Gusts: NA
Location:  43.42°N, 75.48°W
Report Text: KRME 280753Z AUTO 28004KT 10SM OVC036 M03/M04 A3009 RMK AO2 SLP194 T10331044
Loading
Personal Weather Stations






























Interactive Weather Map New forecast layout! Learn more

10-Day Weather Forecast

Advertisements
Track Severe Weather on mobile